This is the latest recevied weather packets stored in our database for station/object KG4QXL-1. If no packets are shown the sender has not sent any weather packets the latest 10 day(s).
| Time | Temp. | Humidity | Pressure | Rain* | Wind** | Luminosity | Snow |
|---|---|---|---|---|---|---|---|
| 1777558558 | 13.89° C | 63% | 1017.2 hPa | 0 mm | - | 105 W/m² | - |
| 1777556759 | 13.89° C | 65% | 1017.5 hPa | 0 mm | - | 80 W/m² | - |
| 1777554358 | 12.78° C | 81% | 1017.2 hPa | 0 mm | - | 83 W/m² | - |
| 1777549558 | 10.56° C | 99% | 1016.9 hPa | 0 mm | - | 60 W/m² | - |
| 1777548958 | 10° C | 99% | 1016.9 hPa | 0 mm | - | 40 W/m² | - |
| 1777547179 | 10° C | 99% | 1016.5 hPa | 0 mm | - | 9 W/m² | - |
| 1777538158 | 10.56° C | 99% | 1015.8 hPa | 0 mm | - | 0 W/m² | - |
| 1777534558 | 10.56° C | 99% | 1015.6 hPa | 0 mm | - | 0 W/m² | - |
| 1777533958 | 10.56° C | 99% | 1015.5 hPa | 0 mm | - | 0 W/m² | - |
| 1777529758 | 11.11° C | 99% | 1014.9 hPa | 0 mm | - | 0 W/m² | - |
| 1777528558 | 11.11° C | 99% | 1015.3 hPa | 0 mm | - | 0 W/m² | - |
| 1777526758 | 11.67° C | 99% | 1015.3 hPa | 0 mm | - | 0 W/m² | - |
| 1777521958 | 12.78° C | 99% | 1015.1 hPa | 0 mm | - | 0 W/m² | - |
| 1777516558 | 13.89° C | 99% | 1015.2 hPa | 0 mm | - | 0 W/m² | - |
| 1777505179 | 15° C | 99% | 1013 hPa | 0 mm | - | 5 W/m² | - |
| 1777503959 | 15.56° C | 99% | 1013.1 hPa | 0 mm | - | 10 W/m² | - |
| 1777496158 | 15° C | 99% | 1014.2 hPa | 4.83 mm | - | 36 W/m² | - |
| 1777495558 | 15° C | 99% | 1014.1 hPa | 4.57 mm | - | 45 W/m² | - |
| 1777491959 | 16.11° C | 97% | 1014.7 hPa | 0.25 mm | - | 68 W/m² | - |
| 1777490759 | 16.11° C | 95% | 1014.7 hPa | 0.25 mm | - | 108 W/m² | - |
| 1777487758 | 15.56° C | 98% | 1015.6 hPa | 2.79 mm | - | 212 W/m² | - |
| 1777486578 | 15.56° C | 98% | 1016 hPa | 2.54 mm | - | 81 W/m² | - |
| 1777481158 | 15° C | 97% | 1018.1 hPa | 0.51 mm | - | 124 W/m² | - |
| 1777480558 | 15.56° C | 96% | 1018.4 hPa | 0.51 mm | - | 86 W/m² | - |
| 1777475758 | 17.78° C | 81% | 1018.6 hPa | 0 mm | - | 109 W/m² | - |
* Rain latest hour (hover to see other rain measurements)
** Current wind speed in m/s (hover to see current wind gust speed)